Nearby METAR Reports

 

KHOB - Hobbs, New Mexico, USA
Distance from station: S 40mi, 65km
Updated: Wed, 23-Oct-2019 2:50pm MDT
Clear
Clear
 Wind from W
Wind: W 12 mph , 19 km/h
Temperature: 79°F , 26°C
Dew Point: 23°F , -5°C
Humidity: 12%
Barometer: 29.93 inHg , 1013.5 hPa
Clouds: Clear
Visibility: 10 miles , 16 km
2019/10/23 20:50 KHOB 232050Z 28010KT 10SM SKC 26/M05 A2993
KGNC - Seminole, Texas, USA
Distance from station: SE 55mi, 89km
Updated: Wed, 23-Oct-2019 3:15pm MDT
Clear
Clear
 Wind from W
Wind: W 9 mph , 15 km/h
Temperature: 81°F , 27°C
Dew Point: 27°F , -3°C
Humidity: 14%
Barometer: 29.95 inHg , 1014.2 hPa
Clouds: Clear
Visibility: 10 miles , 16 km
2019/10/23 21:15 KGNC 232115Z AUTO 27008KT 10SM CLR 27/M03 A2995 RMK AO2 T02731035
 
KROW - Roswell, New Mexico, USA
Distance from station: W 67mi, 108km
Updated: Wed, 23-Oct-2019 2:51pm MDT
Clear
Clear
 Wind from varies
Wind: varies 5 mph , 7 km/h
Temperature: 79°F , 26°C
Dew Point: 30°F , -1°C
Humidity: 17%
Barometer: 29.90 inHg , 1012.5 hPa
Clouds: Clear
Visibility: 10 miles , 16 km
2019/10/23 20:51 KROW 232051Z VRB04KT 10SM CLR 26/M01 A2990 RMK AO2 SLP075 T02611011 56030
KATS - Artesia, New Mexico, USA
Distance from station: WSW 71mi, 114km
Updated: Wed, 23-Oct-2019 3:15pm MDT
Clear
Clear
 Wind from varies
Wind: varies 5 mph , 7 km/h
Temperature: 77°F , 25°C
Dew Point: 30°F , -1°C
Humidity: 18%
Barometer: 29.93 inHg , 1013.5 hPa
Clouds: Clear
Visibility: 10 miles , 16 km
2019/10/23 21:15 KATS 232115Z AUTO VRB04KT 10SM CLR 25/M01 A2993 RMK AO2
 
KCVS - Cannon AFB,Clovis, New Mexico, USA
Distance from station: 0 78mi, 125km
Updated: Wed, 23-Oct-2019 2:58pm MDT
Clear
Clear
 Wind from E
Wind: E 10 mph , 17 km/h, Gust: 21 mph , 33 km/h
Temperature: 73°F , 23°C
Dew Point: 25°F , -4°C
Humidity: 16%
Barometer: 29.97 inHg , 1014.9 hPa
Clouds: Clear
Visibility: 10 miles , 16 km
2019/10/23 20:58 KCVS 232058Z AUTO 10009G18KT 10SM CLR 23/M04 A2997 RMK AO2 SLP109 T02251038 57016 $
KE11 - Andrews, Texas, USA
Distance from station: SE 78mi, 126km
Updated: Wed, 23-Oct-2019 3:15pm MDT
Clear
Clear
 Wind from W
Wind: W 6 mph , 9 km/h
Temperature: 82°F , 28°C
Dew Point: 27°F , -3°C
Humidity: 13%
Barometer: 29.91 inHg , 1012.9 hPa
Clouds: Clear
Visibility: 10 miles , 16 km
2019/10/23 21:15 KE11 232115Z AUTO 26005KT 10SM CLR 28/M03 A2991 RMK AO2 T02761030
 
KCNM - Carlsbad, New Mexico, USA
Distance from station: SW 82mi, 132km
Updated: Wed, 23-Oct-2019 2:53pm MDT
Clear
Clear
 Wind from E
Wind: E 8 mph , 13 km/h
Temperature: 79°F , 26°C
Dew Point: 28°F , -2°C
Humidity: 16%
Barometer: 29.90 inHg , 1012.5 hPa
Clouds: Clear
Visibility: 10 miles , 16 km
2019/10/23 20:53 KCNM 232053Z AUTO 09007KT 10SM CLR 26/M02 A2990 RMK AO2 SLP086 6//// T02561022
KCVN - Clovis Muni, New Mexico, USA
Distance from station: N 83mi, 133km
Updated: Wed, 23-Oct-2019 2:56pm MDT
Clear
Clear
 Wind from varies
Wind: varies 6 mph , 9 km/h
Temperature: 72°F , 22°C
Dew Point: 27°F , -3°C
Humidity: 19%
Barometer: 29.97 inHg , 1014.9 hPa
Clouds: Clear
Visibility: 9 miles , 14 km
2019/10/23 20:56 KCVN 232056Z AUTO VRB05KT 9SM CLR 22/M03 A2997 RMK AO2 SLP122 T02221033 56016
 
KLBB - Lubbock, Texas, USA
Distance from station: ENE 92mi, 149km
Updated: Wed, 23-Oct-2019 2:53pm MDT
Few Clouds
Few Clouds
 Wind from S
Wind: S 5 mph , 7 km/h
Temperature: 75°F , 24°C
Dew Point: 28°F , -2°C
Humidity: 18%
Barometer: 29.91 inHg , 1012.9 hPa
Clouds: Few Clouds
Visibility: 10 miles , 16 km
Cloud details: Few Clouds 25000 ft
2019/10/23 20:53 KLBB 232053Z 17004KT 10SM FEW250 24/M02 A2991 RMK AO2 SLP089 T02391017 56021
KINK - Wink, Texas, USA
Distance from station: S 101mi, 163km
Updated: Wed, 23-Oct-2019 2:53pm MDT
Clear
Clear
 Wind from varies
Wind: varies 6 mph , 9 km/h
Temperature: 82°F , 28°C
Dew Point: 18°F , -8°C
Humidity: 9%
Barometer: 29.88 inHg , 1011.9 hPa
Clouds: Clear
Visibility: 10 miles , 16 km
2019/10/23 20:53 KINK 232053Z AUTO VRB05KT 10SM CLR 28/M08 A2988 RMK AO2 SLP084 T02831083 56032
 
KMAF - Midland, Texas, USA
Distance from station: SE 111mi, 179km
Updated: Wed, 23-Oct-2019 2:53pm MDT
Clear
Clear
 Wind from SW
Wind: SW 13 mph , 20 km/h, Gust: 23 mph , 37 km/h
Temperature: 84°F , 29°C
Dew Point: 28°F , -2°C
Humidity: 13%
Barometer: 29.89 inHg , 1012.2 hPa
Clouds: Clear
Visibility: 10 miles , 16 km
2019/10/23 20:53 KMAF 232053Z 22011G20KT 10SM CLR 29/M02 A2989 RMK AO2 SLP082 T02891022 56030
KSRR - Sierra B/Ruidoso, New Mexico, USA
Distance from station: W 127mi, 204km
Updated: Wed, 23-Oct-2019 3:15pm MDT
Clear
Clear
 Wind from NW
Wind: NW 15 mph , 24 km/h, Gust: 23 mph , 37 km/h
Temperature: 66°F , 19°C
Dew Point: 23°F , -5°C
Humidity: 19%
Barometer: 30.10 inHg , 1019.3 hPa
Clouds: Clear
Visibility: 10 miles , 16 km
2019/10/23 21:15 KSRR 232115Z AUTO 31013G20KT 10SM CLR 19/M05 A3010 RMK AO2
 
KGDP - Guadalupe Pass, Texas, USA
Distance from station: SW 130mi, 209km
Updated: Wed, 23-Oct-2019 2:51pm MDT
Clear
Clear
 Wind from WSW
Wind: WSW 25 mph , 41 km/h, Gust: 32 mph , 52 km/h
Temperature: 73°F , 23°C
Dew Point: 25°F , -4°C
Humidity: 16%
Barometer: 30.03 inHg , 1016.9 hPa
Clouds: Clear
Visibility: 10 miles , 16 km
2019/10/23 20:51 KGDP 232051Z AUTO 25022G28KT 10SM CLR 23/M04 A3003 RMK AO2 PK WND 25029/2037 SLP105 T02281039 58025